createdAt,value
2022-08-03T08:26:24.142Z,2.00
2022-08-03T08:28:52.460Z,1.67
2022-08-03T08:31:19.608Z,2.70
2022-08-03T08:34:03.624Z,2.70
2022-08-03T08:36:34.669Z,2.17
2022-08-03T08:39:01.945Z,1.98
2022-08-03T08:41:32.061Z,2.25
2022-08-03T08:44:00.205Z,2.85
2022-08-03T08:46:29.790Z,2.30
2022-08-03T08:48:57.908Z,2.00
2022-08-03T08:51:50.988Z,2.20
2022-08-03T08:54:20.861Z,1.70
2022-08-03T08:56:52.712Z,2.08
2022-08-03T08:59:20.815Z,2.60
2022-08-03T09:01:47.788Z,4.25
2022-08-03T09:04:14.756Z,2.60
2022-08-03T09:06:50.209Z,2.00
2022-08-03T09:10:01.232Z,2.10
2022-08-03T09:12:38.800Z,2.03
2022-08-03T09:15:21.320Z,1.90
2022-08-03T09:17:51.051Z,1.80
2022-08-03T09:20:19.150Z,2.40
2022-08-03T09:23:44.800Z,1.85
2022-08-03T09:26:01.716Z,1.90
2022-08-03T09:28:59.736Z,1.60
2022-08-03T09:31:44.682Z,1.90
2022-08-03T09:34:14.822Z,1.70
2022-08-03T09:36:45.920Z,1.95
2022-08-03T09:39:18.300Z,1.90
2022-08-03T09:42:10.475Z,1.77
2022-08-03T09:44:42.623Z,2.17
2022-08-03T09:47:15.097Z,2.00
2022-08-03T09:49:56.484Z,1.77
2022-08-03T09:52:38.790Z,1.98
2022-08-03T09:56:30.665Z,1.83
2022-08-03T09:58:07.057Z,1.83
2022-08-03T10:01:00.861Z,1.90
2022-08-03T10:03:29.656Z,1.92
2022-08-03T10:05:59.731Z,1.90
2022-08-03T10:08:26.990Z,2.10
2022-08-03T10:10:58.640Z,1.88
2022-08-03T10:13:25.624Z,1.77
2022-08-03T10:16:23.556Z,2.20
2022-08-03T10:18:39.319Z,1.83
2022-08-03T10:21:10.621Z,2.20
2022-08-03T10:26:08.184Z,2.00
2022-08-03T10:28:42.817Z,2.10
2022-08-03T10:31:13.182Z,1.90
2022-08-03T10:33:50.869Z,1.52
2022-08-03T10:36:23.889Z,1.73
2022-08-03T10:38:55.238Z,1.60
2022-08-03T10:44:11.315Z,1.63
2022-08-03T10:46:44.762Z,1.90
2022-08-03T10:49:16.987Z,1.95
2022-08-03T10:52:12.760Z,2.10
2022-08-03T10:55:03.600Z,2.00
2022-08-03T10:57:58.402Z,1.75
2022-08-03T11:00:27.850Z,1.77
2022-08-03T11:03:11.153Z,1.80
2022-08-03T11:05:43.209Z,1.35
2022-08-03T11:08:28.203Z,1.70
2022-08-03T11:11:02.024Z,1.75
2022-08-03T11:13:33.705Z,1.50
2022-08-03T11:16:06.540Z,1.50
2022-08-03T11:18:34.775Z,1.55
2022-08-03T11:21:02.781Z,1.45
2022-08-03T11:24:05.125Z,1.50
2022-08-03T11:26:31.612Z,1.52
2022-08-03T11:29:28.622Z,1.80
2022-08-03T11:31:55.517Z,1.70
2022-08-03T11:34:22.502Z,1.50
2022-08-03T11:37:22.543Z,1.70
2022-08-03T11:39:51.617Z,1.63
2022-08-03T11:42:24.715Z,1.50
2022-08-03T11:44:56.569Z,1.80
2022-08-03T11:47:27.112Z,1.60
2022-08-03T11:50:02.241Z,1.90
2022-08-03T11:52:35.939Z,1.90
2022-08-03T11:55:08.423Z,1.50
2022-08-03T11:59:01.027Z,2.17
2022-08-03T12:00:28.755Z,1.55
2022-08-03T12:02:57.593Z,2.00
2022-08-03T12:05:52.255Z,1.60
2022-08-03T12:08:28.270Z,1.55
2022-08-03T12:10:56.965Z,1.60
2022-08-03T12:14:37.373Z,1.80
2022-08-03T12:16:22.304Z,1.83
2022-08-03T12:19:04.156Z,1.48
2022-08-03T12:21:31.257Z,1.70
2022-08-03T12:24:00.806Z,1.42
2022-08-03T12:26:29.820Z,1.60
2022-08-03T12:28:57.431Z,1.60
2022-08-03T12:31:25.107Z,1.60
2022-08-03T12:33:59.455Z,1.50
2022-08-03T12:36:27.384Z,1.70
2022-08-03T12:38:59.340Z,1.67
2022-08-03T12:41:32.155Z,1.48
2022-08-03T12:43:59.499Z,1.42
2022-08-03T12:46:32.424Z,1.40
2022-08-03T12:49:18.762Z,1.45
2022-08-03T12:51:45.668Z,1.73
2022-08-03T12:54:24.829Z,1.52
2022-08-03T12:56:58.051Z,1.48
2022-08-03T12:59:32.293Z,1.40
2022-08-03T13:02:09.456Z,1.33
2022-08-03T13:04:36.948Z,1.42
2022-08-03T13:07:06.603Z,1.23
2022-08-03T13:09:50.396Z,1.42
2022-08-03T13:12:18.939Z,1.60
2022-08-03T13:15:00.875Z,1.30
2022-08-03T13:17:28.077Z,1.20
2022-08-03T13:19:55.146Z,1.60
2022-08-03T13:22:25.088Z,1.23
2022-08-03T13:24:55.960Z,1.65
2022-08-03T13:28:03.219Z,1.40
2022-08-03T13:30:11.021Z,1.40
2022-08-03T13:32:38.291Z,1.33
2022-08-03T13:35:05.948Z,1.38
2022-08-03T13:37:33.201Z,1.20
2022-08-03T13:40:02.699Z,1.60
2022-08-03T13:42:31.357Z,1.20
2022-08-03T13:44:58.799Z,1.60
2022-08-03T13:47:26.133Z,1.35
2022-08-03T13:49:59.982Z,1.50
2022-08-03T13:52:36.113Z,1.33
2022-08-03T13:55:05.566Z,1.52
2022-08-03T13:58:04.544Z,1.30
2022-08-03T14:00:27.134Z,1.40
2022-08-03T14:03:13.809Z,1.27
2022-08-03T14:05:42.636Z,1.30
2022-08-03T14:08:10.517Z,1.33
2022-08-03T14:10:40.684Z,1.38
2022-08-03T14:13:08.710Z,1.25
2022-08-03T14:15:37.978Z,1.55
2022-08-03T14:18:15.384Z,1.40
2022-08-03T14:20:49.071Z,1.10
2022-08-03T14:23:19.092Z,1.50
2022-08-03T14:25:51.948Z,1.42
2022-08-03T14:28:22.969Z,1.48
2022-08-03T14:30:54.106Z,1.23
2022-08-03T14:33:21.240Z,1.30
2022-08-03T14:35:48.702Z,1.70
2022-08-03T14:38:16.081Z,1.48
2022-08-03T14:40:43.489Z,1.40
2022-08-03T14:43:10.533Z,1.35
2022-08-03T14:45:37.367Z,1.25
2022-08-03T14:50:29.740Z,1.45
2022-08-03T14:50:55.627Z,1.42
2022-08-03T14:53:22.913Z,1.30
2022-08-03T14:55:51.878Z,1.27
2022-08-03T14:58:21.166Z,1.20
2022-08-03T15:00:49.596Z,1.40
2022-08-03T15:03:17.543Z,1.52
2022-08-03T15:05:44.711Z,1.38
2022-08-03T15:08:11.677Z,1.33
2022-08-03T15:10:43.775Z,1.15
2022-08-03T15:13:12.954Z,1.45
2022-08-03T15:15:39.943Z,1.38
2022-08-03T15:18:06.882Z,1.45
2022-08-03T15:20:46.522Z,1.27
2022-08-03T15:23:15.347Z,1.35
2022-08-03T15:26:27.969Z,1.35
2022-08-03T15:28:32.806Z,1.55
2022-08-03T15:31:00.117Z,1.55
2022-08-03T15:33:27.195Z,1.27
2022-08-03T15:35:54.128Z,1.25
2022-08-03T15:38:25.905Z,1.20
2022-08-03T15:40:56.923Z,1.30
2022-08-03T15:43:24.381Z,1.30
2022-08-03T15:46:12.722Z,1.10
2022-08-03T15:48:39.058Z,1.20
2022-08-03T15:51:06.359Z,1.50
2022-08-03T15:53:36.823Z,1.25
2022-08-03T15:56:10.044Z,1.20
2022-08-03T15:59:04.271Z,1.30
2022-08-03T16:01:26.704Z,1.10
2022-08-03T16:03:53.952Z,1.30
2022-08-03T16:06:29.579Z,1.40
2022-08-03T16:09:02.809Z,1.20
2022-08-03T16:11:29.635Z,1.35
2022-08-03T16:14:14.559Z,1.30
2022-08-03T16:16:43.303Z,1.27
2022-08-03T16:19:10.289Z,1.50
2022-08-03T16:21:38.663Z,1.60
2022-08-03T16:24:17.490Z,1.58
2022-08-03T16:26:53.676Z,1.35
2022-08-03T16:29:23.043Z,1.67
2022-08-03T16:31:50.863Z,1.35
2022-08-03T16:34:18.577Z,1.50
2022-08-03T16:36:45.899Z,1.52
2022-08-03T16:39:12.836Z,1.60
2022-08-03T16:42:00.575Z,1.40
2022-08-03T16:44:27.676Z,1.35
2022-08-03T16:46:54.624Z,1.50
2022-08-03T16:49:55.432Z,1.45
2022-08-03T16:52:08.394Z,1.30
2022-08-03T16:54:35.288Z,1.40
2022-08-03T16:57:02.094Z,1.95
2022-08-03T16:59:36.396Z,1.50
2022-08-03T17:02:09.861Z,1.40
2022-08-03T17:04:40.232Z,1.30
2022-08-03T17:07:08.692Z,1.75
2022-08-03T17:09:38.757Z,1.35
2022-08-03T17:12:07.160Z,1.38
2022-08-03T17:14:34.180Z,1.50
2022-08-03T17:17:03.868Z,1.30
2022-08-03T17:19:32.563Z,1.58
2022-08-03T17:22:12.211Z,1.40
2022-08-03T17:24:53.430Z,1.40
2022-08-03T17:28:48.531Z,1.58
2022-08-03T17:30:14.961Z,1.25
2022-08-03T17:32:52.719Z,1.50
2022-08-03T17:35:24.132Z,1.45
2022-08-03T17:38:03.285Z,1.58
2022-08-03T17:40:31.718Z,1.75
2022-08-03T17:43:00.839Z,1.80
2022-08-03T17:45:52.379Z,1.70
2022-08-03T17:48:20.725Z,1.70
2022-08-03T17:50:58.884Z,1.80
2022-08-03T17:53:31.843Z,1.83
2022-08-03T17:56:40.380Z,1.80
2022-08-03T17:59:09.412Z,1.45
2022-08-03T18:02:30.374Z,1.95
2022-08-03T18:05:16.483Z,1.55
2022-08-03T18:08:01.495Z,1.55
2022-08-03T18:10:35.432Z,1.80
2022-08-03T18:13:24.103Z,1.90
2022-08-03T18:16:00.058Z,1.92
2022-08-03T18:18:44.199Z,1.50
2022-08-03T18:21:17.038Z,1.95
2022-08-03T18:23:46.077Z,1.60
2022-08-03T18:26:18.211Z,1.80
2022-08-03T18:28:45.191Z,1.60
2022-08-03T18:31:33.130Z,1.92
2022-08-03T18:34:17.379Z,1.85
2022-08-03T18:36:50.435Z,1.75
2022-08-03T18:39:19.658Z,1.88
2022-08-03T18:41:46.871Z,2.10
2022-08-03T18:44:52.489Z,2.00
2022-08-03T18:47:50.717Z,1.63
2022-08-03T18:50:24.621Z,1.90
2022-08-03T18:53:04.029Z,2.10
2022-08-03T18:56:03.462Z,2.00
2022-08-03T18:59:02.433Z,1.80
2022-08-03T19:01:58.434Z,2.05
2022-08-03T19:04:34.628Z,2.17
2022-08-03T19:07:12.866Z,1.77
2022-08-03T19:09:52.440Z,2.25
2022-08-03T19:12:30.716Z,2.00
2022-08-03T19:15:12.438Z,2.20
2022-08-03T19:17:43.476Z,2.13
2022-08-03T19:20:31.007Z,1.83
2022-08-03T19:22:59.811Z,1.77
2022-08-03T19:25:35.199Z,2.00
2022-08-03T19:28:06.207Z,2.22
2022-08-03T19:30:38.813Z,2.30
2022-08-03T19:33:11.487Z,2.15
2022-08-03T19:35:55.472Z,2.60
2022-08-03T19:38:28.516Z,2.10
2022-08-03T19:41:03.048Z,2.30
2022-08-03T19:43:52.519Z,2.13
2022-08-03T19:46:30.668Z,2.28
2022-08-03T19:52:03.399Z,2.30
2022-08-03T19:54:52.989Z,2.10
2022-08-03T19:57:24.080Z,2.40
2022-08-03T19:59:52.737Z,1.85
2022-08-03T20:02:25.689Z,2.15
2022-08-03T20:04:55.431Z,2.50
2022-08-03T20:07:22.981Z,2.40
2022-08-03T20:09:56.101Z,2.20
2022-08-03T20:12:39.670Z,2.50
2022-08-03T20:15:07.213Z,2.35
2022-08-03T20:17:56.972Z,2.80
2022-08-03T20:20:29.921Z,2.60
2022-08-03T20:22:59.271Z,2.40
2022-08-03T20:25:37.947Z,2.33
2022-08-03T20:28:14.318Z,2.30
2022-08-03T20:30:44.087Z,2.58
2022-08-03T20:33:11.380Z,2.20
2022-08-03T20:35:38.514Z,2.15
2022-08-03T20:38:09.347Z,2.20
2022-08-03T20:40:36.492Z,2.53
2022-08-03T20:43:05.378Z,2.50
2022-08-03T20:45:59.014Z,2.15
2022-08-03T20:48:22.172Z,2.17
2022-08-03T20:50:49.568Z,2.28
2022-08-03T20:53:41.369Z,2.05
2022-08-03T20:56:05.251Z,2.17
2022-08-03T20:58:36.104Z,2.20
2022-08-03T21:01:03.528Z,2.10
2022-08-03T21:03:41.034Z,2.22
2022-08-03T21:06:27.810Z,2.15
2022-08-03T21:09:05.276Z,2.38
2022-08-03T21:11:43.170Z,2.35
2022-08-03T21:13:08.689Z,2.13
2022-08-03T21:14:35.031Z,2.20
2022-08-03T21:17:25.016Z,2.40
2022-08-03T21:19:52.869Z,2.33
2022-08-03T21:22:22.939Z,1.90
2022-08-03T21:24:54.440Z,2.15
2022-08-03T21:27:24.382Z,2.22
2022-08-03T21:29:53.332Z,2.38
2022-08-03T21:32:32.329Z,2.20
2022-08-03T21:35:00.746Z,2.00
2022-08-03T21:37:28.500Z,2.45
2022-08-03T21:39:56.428Z,2.30
2022-08-03T21:42:23.942Z,2.63
2022-08-03T21:44:54.195Z,2.30
2022-08-03T21:47:22.850Z,2.45
2022-08-03T21:50:06.083Z,2.05
2022-08-03T21:52:46.811Z,2.28
2022-08-03T21:55:20.416Z,2.60
2022-08-03T21:57:53.062Z,2.45
2022-08-03T22:00:23.297Z,2.38
2022-08-03T22:02:57.424Z,2.65
2022-08-03T22:05:42.450Z,3.30
2022-08-03T22:08:13.345Z,2.78
2022-08-03T22:10:40.512Z,2.80
2022-08-03T22:13:07.549Z,2.80
2022-08-03T22:15:34.807Z,3.00
2022-08-03T22:18:04.525Z,3.22
2022-08-03T22:20:31.665Z,3.10
2022-08-03T22:23:02.545Z,3.00
2022-08-03T22:25:32.403Z,2.90
2022-08-03T22:28:21.875Z,3.03
2022-08-03T22:30:49.237Z,3.25
2022-08-03T22:33:16.322Z,2.88
2022-08-03T22:35:47.438Z,2.97
2022-08-03T22:38:16.291Z,2.83
2022-08-03T22:40:43.850Z,3.40
2022-08-03T22:43:10.678Z,3.28
2022-08-03T22:46:06.910Z,3.20
2022-08-03T22:48:27.738Z,3.10
2022-08-03T22:50:55.906Z,3.33
2022-08-03T22:53:22.727Z,3.25
2022-08-03T22:55:50.853Z,3.28
2022-08-03T22:58:20.789Z,2.80
2022-08-03T23:01:03.103Z,3.63
2022-08-03T23:03:59.783Z,3.13
2022-08-03T23:06:21.636Z,3.47
2022-08-03T23:08:50.633Z,3.30
2022-08-03T23:11:18.925Z,3.78
2022-08-03T23:13:49.291Z,3.70
2022-08-03T23:16:29.028Z,3.47
2022-08-03T23:18:59.571Z,3.55
2022-08-03T23:21:53.508Z,3.63
2022-08-03T23:24:26.086Z,3.30
2022-08-03T23:26:57.288Z,3.65
2022-08-03T23:29:24.556Z,3.95
2022-08-03T23:31:53.660Z,3.60
2022-08-03T23:34:54.205Z,3.38
2022-08-03T23:37:21.340Z,3.10
2022-08-03T23:39:49.380Z,3.35
2022-08-03T23:42:21.632Z,3.17
2022-08-03T23:44:54.092Z,3.72
2022-08-03T23:47:21.084Z,3.70
2022-08-03T23:49:48.277Z,3.75
2022-08-03T23:52:46.144Z,3.60
2022-08-03T23:55:37.968Z,3.15
2022-08-03T23:58:24.332Z,3.17
